Time;durP1;ratioP1;P1;durP2;ratioP2;P2;SDS_P1;SDS_P2;PMS_P1;PMS_P2;Temp;Humidity;BMP_temperature;BMP_pressure;BME280_temperature;BME280_humidity;BME280_pressure;Samples;Min_cycle;Max_cycle;Signal;HPM_P1;HPM_P2
2023/07/08 00:00:15;;;;;;;10.63;5.47;;;21.30;66.20;;;;;;5052929;28;20631;-56
2023/07/08 00:02:43;;;;;;;7.10;5.28;;;21.30;66.60;;;;;;5052769;28;20792;-57
2023/07/08 00:05:11;;;;;;;7.68;5.60;;;21.20;67.10;;;;;;5052811;28;20239;-57
2023/07/08 00:07:38;;;;;;;7.97;5.75;;;21.10;67.20;;;;;;5052688;28;20312;-56
2023/07/08 00:10:13;;;;;;;9.48;5.20;;;21.00;67.70;;;;;;5052813;28;20206;-57
2023/07/08 00:12:40;;;;;;;7.25;5.22;;;20.90;67.80;;;;;;5052758;28;20283;-56
2023/07/08 00:15:08;;;;;;;6.80;5.50;;;20.90;68.00;;;;;;5052909;28;20215;-57
2023/07/08 00:17:34;;;;;;;6.35;5.05;;;20.90;68.10;;;;;;5052442;28;20248;-56
2023/07/08 00:20:09;;;;;;;6.53;4.80;;;20.80;68.30;;;;;;5052874;28;20208;-56
2023/07/08 00:22:40;;;;;;;6.90;4.78;;;20.70;68.20;;;;;;5052553;28;20619;-56
2023/07/08 00:25:07;;;;;;;7.03;5.05;;;20.70;68.40;;;;;;5052730;28;20228;-57
2023/07/08 00:27:34;;;;;;;8.68;5.13;;;20.60;68.40;;;;;;5052274;28;20595;-56
2023/07/08 00:30:01;;;;;;;6.85;5.10;;;20.60;68.60;;;;;;5052271;28;20681;-56
2023/07/08 00:32:28;;;;;;;7.28;5.10;;;20.60;68.90;;;;;;5052354;28;20225;-57
2023/07/08 00:34:54;;;;;;;6.57;5.05;;;20.50;68.70;;;;;;5052419;28;20665;-56
2023/07/08 00:37:22;;;;;;;8.55;5.50;;;20.60;68.90;;;;;;5052397;28;20210;-56
2023/07/08 00:39:49;;;;;;;9.02;5.47;;;20.60;68.90;;;;;;5052280;28;20625;-55
2023/07/08 00:42:19;;;;;;;6.68;5.10;;;20.50;68.80;;;;;;5052214;28;20230;-56
2023/07/08 00:44:46;;;;;;;7.22;5.30;;;20.60;68.70;;;;;;5052094;28;20685;-58
2023/07/08 00:47:15;;;;;;;6.15;5.05;;;20.50;68.50;;;;;;5051928;28;20236;-57
2023/07/08 00:49:46;;;;;;;6.13;4.80;;;20.50;68.70;;;;;;5052108;28;20201;-58
2023/07/08 00:52:18;;;;;;;6.53;5.05;;;20.50;68.80;;;;;;5051947;28;20621;-56
2023/07/08 00:54:49;;;;;;;8.77;5.32;;;20.40;69.00;;;;;;5052111;28;20288;-55
2023/07/08 00:57:17;;;;;;;7.05;5.38;;;20.40;69.20;;;;;;5051859;28;20271;-56
2023/07/08 00:59:48;;;;;;;7.68;5.10;;;20.30;69.40;;;;;;5052111;28;20209;-56
2023/07/08 01:02:18;;;;;;;7.28;4.80;;;20.40;69.10;;;;;;5051972;28;20705;-55
2023/07/08 01:04:52;;;;;;;7.43;5.40;;;20.50;69.20;;;;;;5051918;28;20201;-57
2023/07/08 01:07:21;;;;;;;5.50;4.40;;;20.50;69.40;;;;;;5051357;28;20221;-57
2023/07/08 01:09:53;;;;;;;7.80;5.05;;;20.50;69.70;;;;;;5051269;28;20477;-56
2023/07/08 01:12:24;;;;;;;6.57;5.05;;;20.50;69.40;;;;;;5051769;28;20308;-58
2023/07/08 01:14:54;;;;;;;6.85;5.15;;;20.50;69.40;;;;;;5051454;28;20700;-56
2023/07/08 01:17:21;;;;;;;8.00;5.07;;;20.50;69.30;;;;;;5051209;28;20284;-57
2023/07/08 01:19:51;;;;;;;8.30;5.63;;;20.50;69.40;;;;;;5051569;28;20206;-58
2023/07/08 01:22:20;;;;;;;8.13;4.65;;;20.50;69.30;;;;;;5051844;28;20727;-58
2023/07/08 01:24:47;;;;;;;6.63;5.20;;;20.50;69.30;;;;;;5051630;28;20206;-59
2023/07/08 01:27:17;;;;;;;6.40;5.00;;;20.50;69.40;;;;;;5051253;28;20225;-58
2023/07/08 01:29:44;;;;;;;6.88;5.28;;;20.50;69.70;;;;;;5051349;28;20309;-58
2023/07/08 01:32:17;;;;;;;7.85;5.80;;;20.40;69.10;;;;;;5051562;28;20257;-58
2023/07/08 01:34:59;;;;;;;7.57;5.35;;;20.40;69.10;;;;;;5051584;28;20236;-58
2023/07/08 01:37:29;;;;;;;6.15;4.78;;;20.40;69.20;;;;;;5051201;28;20311;-58
2023/07/08 01:39:56;;;;;;;8.00;5.15;;;20.40;69.40;;;;;;5051210;28;20757;-58
2023/07/08 01:42:23;;;;;;;6.75;4.80;;;20.40;69.40;;;;;;5051659;28;20230;-57
2023/07/08 01:44:50;;;;;;;9.20;4.95;;;20.40;69.30;;;;;;5051527;28;20227;-58
2023/07/08 01:47:19;;;;;;;5.80;5.10;;;20.40;69.80;;;;;;5051233;28;20232;-58
2023/07/08 01:49:48;;;;;;;8.20;5.22;;;20.40;69.80;;;;;;5051736;28;20205;-58
2023/07/08 01:52:17;;;;;;;7.07;5.07;;;20.30;68.90;;;;;;5051308;28;20226;-57
2023/07/08 01:54:45;;;;;;;6.65;4.93;;;20.30;68.40;;;;;;5051101;28;20739;-58
2023/07/08 01:57:12;;;;;;;5.63;4.57;;;20.40;68.40;;;;;;5050734;28;20205;-58
2023/07/08 01:59:38;;;;;;;5.38;4.68;;;20.40;68.50;;;;;;5051006;28;20209;-58
2023/07/08 02:02:05;;;;;;;8.73;4.95;;;20.40;68.60;;;;;;5051167;28;20290;-59
2023/07/08 02:04:32;;;;;;;6.32;5.05;;;20.30;68.70;;;;;;5051340;28;20205;-60
2023/07/08 02:07:00;;;;;;;6.22;4.85;;;20.30;68.70;;;;;;5050775;28;20225;-58
2023/07/08 02:09:27;;;;;;;6.45;4.57;;;20.30;68.30;;;;;;5050814;28;20748;-58
2023/07/08 02:11:55;;;;;;;9.10;4.93;;;20.30;68.10;;;;;;5050813;28;20279;-58
2023/07/08 02:14:22;;;;;;;6.43;4.88;;;20.30;68.00;;;;;;5050966;28;20212;-59
2023/07/08 02:16:49;;;;;;;6.75;5.05;;;20.30;67.80;;;;;;5050899;28;20198;-57
2023/07/08 02:19:16;;;;;;;10.75;5.07;;;20.40;67.80;;;;;;5050840;28;20696;-58
2023/07/08 02:21:43;;;;;;;6.32;4.88;;;20.40;68.00;;;;;;5053887;28;20252;-59
2023/07/08 02:24:09;;;;;;;5.75;4.80;;;20.30;68.40;;;;;;5054929;28;20339;-59
2023/07/08 02:26:36;;;;;;;5.95;5.13;;;20.30;68.30;;;;;;5054267;28;20676;-58
2023/07/08 02:29:04;;;;;;;7.10;5.00;;;20.30;68.00;;;;;;5054864;28;20205;-59
2023/07/08 02:31:31;;;;;;;7.65;4.78;;;20.30;68.30;;;;;;5054677;28;20271;-59
2023/07/08 02:33:58;;;;;;;6.53;4.80;;;20.30;68.70;;;;;;5054747;28;20209;-58
2023/07/08 02:36:25;;;;;;;5.93;4.60;;;20.30;69.00;;;;;;5054250;28;20293;-58
2023/07/08 02:38:52;;;;;;;6.22;4.75;;;20.30;69.10;;;;;;5054365;28;20224;-58
2023/07/08 02:41:19;;;;;;;7.32;4.93;;;20.20;69.20;;;;;;5054271;28;20232;-60
2023/07/08 02:43:46;;;;;;;6.53;4.90;;;20.20;69.40;;;;;;5054569;28;20259;-58
2023/07/08 02:46:14;;;;;;;8.57;5.68;;;20.20;69.70;;;;;;5054217;28;20223;-57
2023/07/08 02:48:40;;;;;;;6.65;5.22;;;20.20;70.80;;;;;;5054371;28;20664;-58
2023/07/08 02:51:08;;;;;;;6.80;5.45;;;20.10;71.50;;;;;;5054284;28;20294;-58
2023/07/08 02:53:35;;;;;;;8.05;5.45;;;20.10;71.70;;;;;;5054388;28;20214;-58
2023/07/08 02:56:02;;;;;;;7.03;5.07;;;20.10;72.40;;;;;;5054306;28;20205;-58
2023/07/08 02:58:29;;;;;;;7.75;4.75;;;20.00;72.00;;;;;;5054345;28;20214;-58
2023/07/08 03:00:58;;;;;;;6.38;5.03;;;20.00;71.30;;;;;;5054235;28;20226;-58
2023/07/08 03:03:28;;;;;;;7.45;5.07;;;19.90;72.50;;;;;;5054162;28;20236;-58
2023/07/08 03:05:56;;;;;;;6.20;4.78;;;19.90;73.60;;;;;;5053625;28;20666;-58
2023/07/08 03:08:23;;;;;;;7.55;4.93;;;19.70;73.30;;;;;;5053781;28;20221;-58
2023/07/08 03:10:57;;;;;;;5.43;4.85;;;19.70;74.40;;;;;;5054112;28;20267;-58
2023/07/08 03:13:24;;;;;;;6.38;4.60;;;19.70;74.40;;;;;;5054054;28;20293;-59
2023/07/08 03:15:51;;;;;;;7.57;5.03;;;19.80;74.10;;;;;;5053703;28;20209;-59
2023/07/08 03:18:18;;;;;;;7.65;4.80;;;19.80;74.20;;;;;;5053934;28;20259;-59
2023/07/08 03:20:48;;;;;;;7.35;5.60;;;19.80;74.30;;;;;;5053517;28;20682;-59
2023/07/08 03:23:15;;;;;;;5.50;4.63;;;19.80;73.90;;;;;;5053929;28;20689;-59
2023/07/08 03:25:42;;;;;;;6.88;4.63;;;19.80;74.10;;;;;;5053534;28;20210;-59
2023/07/08 03:28:14;;;;;;;8.82;5.28;;;19.70;73.20;;;;;;5053599;28;20299;-59
2023/07/08 03:30:42;;;;;;;7.43;5.35;;;19.70;74.60;;;;;;5053603;28;20210;-59
2023/07/08 03:33:08;;;;;;;5.78;4.88;;;19.70;74.40;;;;;;5053583;28;20209;-58
2023/07/08 03:35:35;;;;;;;8.43;4.97;;;19.80;74.50;;;;;;5053344;28;20216;-58
2023/07/08 03:38:03;;;;;;;6.53;5.15;;;19.80;75.00;;;;;;5053759;28;20208;-58
2023/07/08 03:40:31;;;;;;;5.93;4.72;;;19.80;75.70;;;;;;5053719;28;20206;-59
2023/07/08 03:42:57;;;;;;;8.48;5.15;;;19.80;75.50;;;;;;5053530;28;20217;-58
2023/07/08 03:45:25;;;;;;;7.35;5.00;;;19.70;75.50;;;;;;5053529;28;20205;-57
2023/07/08 03:47:52;;;;;;;5.28;4.65;;;19.70;75.70;;;;;;5052759;28;20698;-57
2023/07/08 03:50:20;;;;;;;7.03;5.10;;;19.80;75.60;;;;;;5053655;28;20236;-58
2023/07/08 03:52:48;;;;;;;6.68;4.60;;;19.80;75.60;;;;;;5053259;28;20643;-58
2023/07/08 03:55:16;;;;;;;7.50;4.93;;;19.80;75.80;;;;;;5053600;28;20216;-57
2023/07/08 03:57:43;;;;;;;6.90;5.47;;;19.80;76.40;;;;;;5052836;28;20201;-57
2023/07/08 04:00:12;;;;;;;11.52;4.95;;;19.80;76.50;;;;;;5053316;28;20216;-59
2023/07/08 04:02:39;;;;;;;6.53;4.80;;;19.90;76.30;;;;;;5052536;28;20576;-57
2023/07/08 04:05:07;;;;;;;7.15;5.03;;;19.90;75.80;;;;;;5052657;28;20614;-58
2023/07/08 04:07:34;;;;;;;7.80;4.70;;;20.00;75.20;;;;;;5052804;28;20221;-58
2023/07/08 04:10:01;;;;;;;6.22;4.53;;;20.00;75.20;;;;;;5052784;28;20202;-58
2023/07/08 04:12:29;;;;;;;7.07;5.30;;;19.90;75.10;;;;;;5052734;28;20312;-58
2023/07/08 04:14:56;;;;;;;6.70;5.05;;;20.00;75.20;;;;;;5053170;28;20239;-58
2023/07/08 04:17:23;;;;;;;7.13;4.68;;;20.10;74.70;;;;;;5052426;28;20296;-59
2023/07/08 04:19:50;;;;;;;7.90;5.05;;;20.20;74.70;;;;;;5052604;28;20237;-59
2023/07/08 04:22:17;;;;;;;6.20;4.78;;;20.20;74.90;;;;;;5052487;28;20355;-59
2023/07/08 04:24:44;;;;;;;7.78;4.65;;;20.20;75.00;;;;;;5052593;28;20213;-58
2023/07/08 04:27:14;;;;;;;6.57;4.82;;;20.30;75.20;;;;;;5052383;28;20472;-58
2023/07/08 04:29:43;;;;;;;5.50;4.60;;;20.40;75.00;;;;;;5052348;28;20700;-58
2023/07/08 04:32:10;;;;;;;6.28;4.35;;;20.40;75.00;;;;;;5052696;28;20225;-58
2023/07/08 04:34:37;;;;;;;5.35;4.40;;;20.40;75.60;;;;;;5052586;28;20629;-58
2023/07/08 04:37:04;;;;;;;6.57;5.07;;;20.40;76.00;;;;;;5052185;28;20205;-58
2023/07/08 04:39:32;;;;;;;6.68;4.85;;;20.50;75.70;;;;;;5052242;28;20206;-58
2023/07/08 04:41:58;;;;;;;7.32;4.85;;;20.60;76.30;;;;;;5052068;28;20312;-59
2023/07/08 04:44:27;;;;;;;5.90;4.75;;;20.70;76.00;;;;;;5051578;28;20377;-60
2023/07/08 04:46:57;;;;;;;6.90;5.10;;;20.80;75.30;;;;;;5052054;28;20254;-58
2023/07/08 04:49:31;;;;;;;5.53;4.55;;;21.10;74.50;;;;;;5052138;28;20263;-58
2023/07/08 04:51:58;;;;;;;6.18;4.80;;;21.40;73.80;;;;;;5051941;28;20233;-58
2023/07/08 04:54:24;;;;;;;6.38;4.55;;;21.80;72.90;;;;;;5052165;28;20209;-59
2023/07/08 04:56:52;;;;;;;6.75;4.65;;;22.20;71.60;;;;;;5052462;28;20206;-59
2023/07/08 04:59:21;;;;;;;8.75;4.70;;;22.70;70.10;;;;;;5052399;28;20256;-57
2023/07/08 05:01:48;;;;;;;6.20;4.88;;;23.20;69.40;;;;;;5051809;28;20701;-57
2023/07/08 05:04:18;;;;;;;6.88;4.63;;;24.10;68.30;;;;;;5051868;28;20216;-57
2023/07/08 05:06:45;;;;;;;6.97;4.72;;;25.40;66.20;;;;;;5051861;28;20210;-60
2023/07/08 05:09:12;;;;;;;7.63;4.88;;;26.90;62.40;;;;;;5051878;28;20701;-60
2023/07/08 05:11:38;;;;;;;5.75;4.28;;;28.40;58.90;;;;;;5052193;28;20287;-59
2023/07/08 05:14:06;;;;;;;5.13;4.38;;;29.40;56.50;;;;;;5052430;28;20210;-60
2023/07/08 05:16:35;;;;;;;7.65;5.10;;;30.30;54.50;;;;;;5051938;28;20208;-60
2023/07/08 05:19:02;;;;;;;6.03;4.55;;;31.30;52.10;;;;;;5051919;28;20209;-60
2023/07/08 05:21:33;;;;;;;6.15;4.57;;;32.00;49.90;;;;;;5051726;28;20323;-60
2023/07/08 05:24:00;;;;;;;7.22;5.00;;;32.50;48.50;;;;;;5052081;28;20193;-60
2023/07/08 05:26:27;;;;;;;7.45;4.95;;;32.60;48.30;;;;;;5051903;28;20213;-60
2023/07/08 05:28:53;;;;;;;6.25;4.65;;;32.30;48.90;;;;;;5051992;28;20225;-60
2023/07/08 05:31:20;;;;;;;6.00;4.57;;;31.60;50.20;;;;;;5051647;28;20678;-59
2023/07/08 05:33:47;;;;;;;6.13;4.65;;;31.40;50.20;;;;;;5051634;28;20259;-59
2023/07/08 05:36:14;;;;;;;6.05;4.57;;;31.50;49.80;;;;;;5051078;28;20267;-60
2023/07/08 05:38:42;;;;;;;6.72;5.07;;;31.30;50.30;;;;;;5051854;28;20202;-58
2023/07/08 05:41:09;;;;;;;7.85;4.70;;;31.50;49.90;;;;;;5051808;28;20253;-59
2023/07/08 05:43:35;;;;;;;5.85;4.57;;;32.10;49.60;;;;;;5051896;28;20240;-58
2023/07/08 05:46:03;;;;;;;5.55;4.50;;;33.20;47.90;;;;;;5051400;28;20205;-57
2023/07/08 05:48:29;;;;;;;6.05;4.35;;;33.70;46.80;;;;;;5051624;28;20217;-58
2023/07/08 05:50:57;;;;;;;6.13;5.10;;;33.30;47.00;;;;;;5051694;28;20229;-57
2023/07/08 05:53:23;;;;;;;6.75;4.68;;;33.50;47.00;;;;;;5051796;28;20202;-57
2023/07/08 05:55:52;;;;;;;7.45;4.75;;;34.40;45.70;;;;;;5052683;28;20741;-58
2023/07/08 05:58:18;;;;;;;6.28;4.47;;;35.80;44.50;;;;;;5056186;28;20198;-58
2023/07/08 06:00:46;;;;;;;8.98;4.50;;;37.30;42.70;;;;;;5055486;28;20535;-57
2023/07/08 06:03:12;;;;;;;5.05;4.13;;;37.70;42.80;;;;;;5055741;28;20209;-58
2023/07/08 06:05:39;;;;;;;7.20;4.60;;;38.00;42.20;;;;;;5055420;28;20835;-58
2023/07/08 06:08:07;;;;;;;6.68;5.00;;;38.60;40.80;;;;;;5055646;28;20283;-57
2023/07/08 06:10:34;;;;;;;8.73;4.90;;;38.50;40.90;;;;;;5056117;28;20201;-57
2023/07/08 06:13:02;;;;;;;6.70;5.22;;;37.80;41.40;;;;;;5055896;28;20244;-58
2023/07/08 06:15:29;;;;;;;6.10;4.82;;;36.80;42.90;;;;;;5057465;28;20208;-59
2023/07/08 06:17:56;;;;;;;7.13;5.10;;;36.00;44.10;;;;;;5057899;28;20220;-57
2023/07/08 06:20:22;;;;;;;7.18;5.53;;;35.20;45.30;;;;;;5057905;28;20267;-57
2023/07/08 06:22:49;;;;;;;6.22;5.47;;;35.40;46.10;;;;;;5056048;28;20262;-57
2023/07/08 06:25:17;;;;;;;7.13;5.22;;;36.80;44.80;;;;;;5055312;28;20216;-58
2023/07/08 06:27:43;;;;;;;5.22;4.72;;;38.40;42.80;;;;;;5054827;28;20569;-57
2023/07/08 06:30:12;;;;;;;7.60;5.22;;;39.70;40.80;;;;;;5055142;28;20217;-59
2023/07/08 06:32:39;;;;;;;7.18;4.85;;;40.90;39.10;;;;;;5055345;28;20275;-58
2023/07/08 06:35:06;;;;;;;7.63;5.05;;;41.70;37.70;;;;;;5055182;28;20208;-57
2023/07/08 06:37:33;;;;;;;5.18;4.68;;;42.20;37.00;;;;;;5054734;28;20296;-58
2023/07/08 06:39:59;;;;;;;5.97;5.32;;;43.00;36.10;;;;;;5054794;28;20212;-58
2023/07/08 06:42:27;;;;;;;11.82;10.73;;;44.10;34.80;;;;;;5055189;28;20232;-58
2023/07/08 06:44:53;;;;;;;20.13;17.30;;;44.80;33.70;;;;;;5054725;28;20216;-58
2023/07/08 06:47:22;;;;;;;5.57;4.82;;;45.50;33.10;;;;;;5054668;28;20614;-58
2023/07/08 06:49:49;;;;;;;7.93;7.13;;;46.10;32.30;;;;;;5054857;28;20251;-58
2023/07/08 06:52:16;;;;;;;6.28;5.05;;;46.70;30.70;;;;;;5054613;28;20305;-57
2023/07/08 06:54:43;;;;;;;8.55;7.70;;;47.20;30.00;;;;;;5054449;28;20213;-57
2023/07/08 06:57:09;;;;;;;6.15;5.55;;;47.20;30.00;;;;;;5053979;28;20209;-57
2023/07/08 06:59:36;;;;;;;6.00;5.40;;;47.20;30.00;;;;;;5054744;28;20658;-58
2023/07/08 07:02:03;;;;;;;7.03;4.68;;;47.10;29.80;;;;;;5054454;28;20300;-58
2023/07/08 07:04:32;;;;;;;6.35;5.28;;;47.00;29.90;;;;;;5054488;28;20200;-58
2023/07/08 07:06:58;;;;;;;7.07;5.40;;;47.30;29.70;;;;;;5053569;28;20680;-58
2023/07/08 07:09:25;;;;;;;7.65;5.15;;;47.80;29.20;;;;;;5054529;28;20230;-58
2023/07/08 07:11:52;;;;;;;7.00;4.50;;;47.80;29.20;;;;;;5054380;28;20235;-58
2023/07/08 07:14:19;;;;;;;7.55;4.95;;;46.70;29.50;;;;;;5054001;28;20209;-57
2023/07/08 07:16:45;;;;;;;6.22;4.47;;;45.40;30.90;;;;;;5053590;28;20258;-57
2023/07/08 07:19:12;;;;;;;13.07;5.00;;;44.50;31.20;;;;;;5053815;28;20263;-58
2023/07/08 07:21:40;;;;;;;5.90;4.65;;;43.50;32.10;;;;;;5054264;28;20236;-56
2023/07/08 07:24:07;;;;;;;7.85;4.75;;;42.80;32.80;;;;;;5054158;28;20568;-57
2023/07/08 07:26:36;;;;;;;9.18;4.90;;;41.90;33.80;;;;;;5053374;28;20316;-56
2023/07/08 07:29:03;;;;;;;8.68;5.25;;;40.70;34.70;;;;;;5053512;28;20272;-56
2023/07/08 07:31:29;;;;;;;6.97;4.90;;;39.60;36.00;;;;;;5053561;28;20225;-56
2023/07/08 07:33:57;;;;;;;6.40;5.10;;;38.60;37.10;;;;;;5053677;28;20210;-56
2023/07/08 07:36:23;;;;;;;6.60;4.50;;;37.80;37.80;;;;;;5053311;28;20378;-56
2023/07/08 07:38:51;;;;;;;7.07;5.03;;;37.10;38.80;;;;;;5053630;28;20209;-56
2023/07/08 07:41:18;;;;;;;5.60;4.82;;;36.40;39.60;;;;;;5053257;28;20716;-56
2023/07/08 07:43:45;;;;;;;11.02;5.88;;;35.80;40.50;;;;;;5053433;28;20673;-58
2023/07/08 07:46:12;;;;;;;19.73;6.05;;;35.20;41.40;;;;;;5052856;28;20674;-60
2023/07/08 07:48:39;;;;;;;11.23;5.40;;;34.70;42.10;;;;;;5053540;28;20225;-57
2023/07/08 07:51:10;;;;;;;8.95;5.10;;;34.40;42.80;;;;;;5053896;28;20235;-56
2023/07/08 07:53:37;;;;;;;7.57;5.38;;;34.20;43.20;;;;;;5053492;28;20272;-56
2023/07/08 07:56:05;;;;;;;6.00;5.03;;;34.10;43.40;;;;;;5052887;28;20241;-56
2023/07/08 07:58:32;;;;;;;9.57;6.15;;;33.90;43.90;;;;;;5053154;28;20205;-57
2023/07/08 08:00:59;;;;;;;7.68;5.47;;;33.90;44.60;;;;;;5053210;28;20329;-56
2023/07/08 08:03:26;;;;;;;6.30;5.03;;;34.70;44.00;;;;;;5053171;28;20210;-58
2023/07/08 08:05:52;;;;;;;8.77;5.00;;;36.10;41.90;;;;;;5052605;28;20209;-58
2023/07/08 08:08:22;;;;;;;6.95;4.70;;;36.90;41.20;;;;;;5052727;28;20213;-58
2023/07/08 08:10:49;;;;;;;7.38;4.82;;;36.90;41.00;;;;;;5052916;28;20209;-57
2023/07/08 08:13:17;;;;;;;6.18;4.70;;;36.60;41.20;;;;;;5053033;28;20205;-58
2023/07/08 08:15:43;;;;;;;6.05;4.90;;;37.20;40.80;;;;;;5052782;28;20212;-57
2023/07/08 08:18:10;;;;;;;6.45;4.43;;;38.70;39.30;;;;;;5051862;28;20209;-57
2023/07/08 08:20:39;;;;;;;6.90;4.75;;;40.20;38.00;;;;;;5053006;28;20212;-57
2023/07/08 08:23:06;;;;;;;9.77;5.18;;;41.30;36.70;;;;;;5052891;28;20272;-57
2023/07/08 08:25:33;;;;;;;5.93;4.70;;;42.00;35.70;;;;;;5053210;28;20300;-58
2023/07/08 08:28:00;;;;;;;5.70;4.70;;;42.90;35.00;;;;;;5052784;28;20258;-57
2023/07/08 08:30:28;;;;;;;7.20;4.95;;;43.90;33.80;;;;;;5052460;28;20611;-56
2023/07/08 08:32:54;;;;;;;8.55;5.28;;;43.90;33.80;;;;;;5052548;28;20731;-57
2023/07/08 08:35:21;;;;;;;8.63;4.72;;;44.00;33.50;;;;;;5053002;28;20208;-58
2023/07/08 08:37:48;;;;;;;6.68;4.50;;;44.50;33.10;;;;;;5052346;28;20201;-57
2023/07/08 08:40:18;;;;;;;7.72;4.82;;;45.10;32.20;;;;;;5052791;28;20201;-56
2023/07/08 08:42:53;;;;;;;10.60;4.53;;;45.60;32.10;;;;;;5052564;28;20271;-57
2023/07/08 08:45:20;;;;;;;8.93;4.45;;;46.50;31.40;;;;;;5052737;28;20258;-59
2023/07/08 08:47:52;;;;;;;8.45;5.05;;;46.70;30.70;;;;;;5052357;28;20632;-58
2023/07/08 08:50:30;;;;;;;7.57;6.40;;;46.30;31.00;;;;;;5052860;28;20591;-57
2023/07/08 08:53:00;;;;;;;6.07;4.90;;;45.70;31.30;;;;;;5052986;28;20273;-55
2023/07/08 08:55:27;;;;;;;4.68;4.07;;;44.70;32.10;;;;;;5052458;28;20205;-56
2023/07/08 08:58:03;;;;;;;7.30;4.32;;;43.60;32.80;;;;;;5052262;28;20208;-58
2023/07/08 09:00:40;;;;;;;8.13;4.50;;;41.80;34.70;;;;;;5052348;28;20200;-56
2023/07/08 09:03:13;;;;;;;6.55;4.43;;;40.20;36.10;;;;;;5052586;28;20213;-57
2023/07/08 09:05:40;;;;;;;5.85;4.22;;;38.60;37.80;;;;;;5052053;28;20213;-56
2023/07/08 09:08:15;;;;;;;5.47;4.07;;;37.30;39.20;;;;;;5051822;28;20233;-57
2023/07/08 09:10:46;;;;;;;5.13;3.80;;;36.30;40.40;;;;;;5052004;28;20225;-57
2023/07/08 09:13:22;;;;;;;6.63;3.80;;;35.60;41.00;;;;;;5052496;28;20193;-57
2023/07/08 09:15:52;;;;;;;5.80;3.65;;;34.80;42.00;;;;;;5052536;28;20534;-57
2023/07/08 09:18:28;;;;;;;5.28;4.05;;;34.20;42.40;;;;;;5052016;28;20201;-56
2023/07/08 09:20:56;;;;;;;23.65;6.22;;;33.80;43.10;;;;;;5051518;28;20294;-57
2023/07/08 09:23:27;;;;;;;7.18;3.90;;;33.50;44.10;;;;;;5051753;28;20201;-56
2023/07/08 09:25:56;;;;;;;7.10;4.38;;;33.30;44.70;;;;;;5051224;28;20669;-57
2023/07/08 09:28:37;;;;;;;5.70;4.00;;;33.20;44.80;;;;;;5051578;28;20232;-55
2023/07/08 09:31:07;;;;;;;5.90;3.63;;;32.90;44.90;;;;;;5051514;28;20452;-56
2023/07/08 09:33:39;;;;;;;5.28;3.97;;;32.80;45.20;;;;;;5051794;28;20656;-55
2023/07/08 09:36:17;;;;;;;11.13;4.40;;;32.70;45.50;;;;;;5051549;28;20625;-56
2023/07/08 09:38:47;;;;;;;24.42;5.13;;;32.90;45.60;;;;;;5051635;28;20205;-56
2023/07/08 09:41:14;;;;;;;8.50;3.80;;;33.30;45.30;;;;;;5051644;28;20235;-56
2023/07/08 09:43:41;;;;;;;5.93;3.78;;;33.70;44.70;;;;;;5051561;28;20197;-56
2023/07/08 09:46:15;;;;;;;8.52;3.95;;;33.90;44.30;;;;;;5051140;28;20216;-56
2023/07/08 09:48:43;;;;;;;5.05;3.90;;;34.00;44.40;;;;;;5051436;28;20214;-57
2023/07/08 09:51:09;;;;;;;4.88;3.80;;;34.10;44.20;;;;;;5051201;28;20245;-56
2023/07/08 09:53:37;;;;;;;5.70;4.10;;;34.30;44.10;;;;;;5051368;28;20224;-56
2023/07/08 09:56:05;;;;;;;5.25;3.63;;;34.30;44.20;;;;;;5051166;28;20205;-56
2023/07/08 09:58:37;;;;;;;31.05;6.07;;;34.20;44.60;;;;;;5051620;28;20202;-56
2023/07/08 10:01:12;;;;;;;7.90;4.13;;;33.90;44.70;;;;;;5051280;28;20646;-57
2023/07/08 10:03:39;;;;;;;5.88;4.15;;;33.80;44.60;;;;;;5051441;28;20209;-58
2023/07/08 10:06:17;;;;;;;6.57;3.75;;;33.50;44.90;;;;;;5050935;28;20624;-57
2023/07/08 10:08:45;;;;;;;5.53;3.80;;;33.20;45.20;;;;;;5052132;28;20657;-56
2023/07/08 10:11:20;;;;;;;8.95;3.50;;;33.00;45.80;;;;;;5051405;28;20697;-56
2023/07/08 10:13:50;;;;;;;5.47;3.05;;;32.80;46.30;;;;;;5051475;28;20205;-58
2023/07/08 10:16:23;;;;;;;5.93;3.40;;;32.70;46.80;;;;;;5051076;28;20379;-56
2023/07/08 10:18:50;;;;;;;3.95;3.05;;;32.50;47.00;;;;;;5051980;28;20680;-57
2023/07/08 10:21:27;;;;;;;5.43;2.70;;;32.60;46.70;;;;;;5051855;28;20237;-57
2023/07/08 10:24:03;;;;;;;7.75;3.08;;;32.80;46.50;;;;;;5051756;28;20209;-58
2023/07/08 10:26:32;;;;;;;4.53;2.78;;;32.80;46.60;;;;;;5050871;28;20213;-58
2023/07/08 10:29:14;;;;;;;4.10;3.00;;;32.90;46.30;;;;;;5051104;28;20633;-57
2023/07/08 10:31:47;;;;;;;5.30;2.90;;;33.10;46.50;;;;;;5051026;28;20225;-57
2023/07/08 10:34:30;;;;;;;6.15;3.38;;;32.90;46.30;;;;;;5050874;28;20213;-57
2023/07/08 10:37:06;;;;;;;7.80;3.05;;;32.70;47.00;;;;;;5050668;28;20446;-55
2023/07/08 10:39:54;;;;;;;6.55;2.97;;;32.60;48.20;;;;;;5051168;28;20208;-57
2023/07/08 10:42:34;;;;;;;6.05;3.22;;;32.60;47.40;;;;;;5053092;28;20717;-56
2023/07/08 10:45:10;;;;;;;4.40;2.67;;;32.80;47.10;;;;;;5055097;28;20213;-56
2023/07/08 10:47:54;;;;;;;5.07;3.20;;;33.00;46.80;;;;;;5054472;28;20212;-56
2023/07/08 10:50:38;;;;;;;4.35;3.10;;;33.20;46.70;;;;;;5054950;28;20229;-57
2023/07/08 10:53:29;;;;;;;3.75;2.75;;;33.30;46.20;;;;;;5054535;28;20607;-57
2023/07/08 10:55:59;;;;;;;5.88;3.83;;;33.50;47.10;;;;;;5053861;28;20617;-58
2023/07/08 10:58:40;;;;;;;8.52;3.60;;;33.70;47.50;;;;;;5054341;28;20255;-57
2023/07/08 11:01:16;;;;;;;5.28;3.83;;;33.90;47.40;;;;;;5054346;28;20226;-56
2023/07/08 11:04:03;;;;;;;5.82;3.13;;;34.00;47.20;;;;;;5054376;28;20210;-58
2023/07/08 11:06:44;;;;;;;6.05;3.67;;;33.80;46.80;;;;;;5054083;28;20279;-57
2023/07/08 11:09:17;;;;;;;4.22;2.80;;;33.70;46.90;;;;;;5054524;28;20205;-57
2023/07/08 11:11:51;;;;;;;5.43;2.60;;;33.80;46.90;;;;;;5054157;28;20225;-56
2023/07/08 11:14:23;;;;;;;4.45;2.78;;;34.00;46.70;;;;;;5054235;28;20645;-58
2023/07/08 11:16:56;;;;;;;4.65;2.60;;;34.30;45.90;;;;;;5054637;28;20267;-59
2023/07/08 11:19:30;;;;;;;4.07;2.60;;;34.50;45.50;;;;;;5054568;28;20582;-58
2023/07/08 11:22:07;;;;;;;4.43;2.60;;;34.50;45.30;;;;;;5054355;28;20324;-58
2023/07/08 11:24:40;;;;;;;3.20;2.55;;;34.50;45.30;;;;;;5054588;28;20213;-58
2023/07/08 11:27:13;;;;;;;4.80;2.40;;;34.40;45.30;;;;;;5054377;28;20205;-58
2023/07/08 11:29:45;;;;;;;3.45;2.33;;;34.30;45.10;;;;;;5053945;28;20576;-58
2023/07/08 11:32:16;;;;;;;4.60;2.70;;;34.10;45.30;;;;;;5054455;28;20232;-57
2023/07/08 11:34:45;;;;;;;7.60;2.80;;;34.00;45.20;;;;;;5054400;28;20704;-57
2023/07/08 11:37:14;;;;;;;9.13;2.58;;;33.90;45.80;;;;;;5053747;28;20209;-57
2023/07/08 11:39:43;;;;;;;6.30;2.53;;;33.80;45.30;;;;;;5053811;28;20604;-58
2023/07/08 11:42:21;;;;;;;4.40;2.50;;;33.80;45.90;;;;;;5054228;28;20226;-55
2023/07/08 11:44:52;;;;;;;3.45;2.33;;;33.70;45.80;;;;;;5054473;28;20206;-60
2023/07/08 11:47:22;;;;;;;4.13;2.40;;;33.70;45.70;;;;;;5051198;28;20237;-58
2023/07/08 11:49:50;;;;;;;3.88;2.55;;;33.70;46.00;;;;;;5053925;28;20236;-60
2023/07/08 11:52:20;;;;;;;7.40;2.45;;;33.70;45.80;;;;;;5053410;28;20225;-60
2023/07/08 11:54:55;;;;;;;3.78;2.35;;;33.60;45.50;;;;;;5053139;28;20251;-65
2023/07/08 11:57:29;;;;;;;4.00;2.53;;;33.70;45.10;;;;;;5052835;28;20208;-60
2023/07/08 12:00:17;;;;;;;7.85;2.70;;;33.70;45.20;;;;;;5052977;28;20206;-66
2023/07/08 12:02:53;;;;;;;21.23;3.10;;;33.80;44.70;;;;;;5053507;28;20275;-64
2023/07/08 12:05:31;;;;;;;3.60;2.35;;;33.90;44.60;;;;;;5053134;28;20556;-61
2023/07/08 12:08:00;;;;;;;3.03;1.77;;;34.00;44.70;;;;;;5052508;28;20243;-61
2023/07/08 12:10:33;;;;;;;3.50;2.00;;;33.70;44.90;;;;;;5053430;28;20229;-61
2023/07/08 12:12:59;;;;;;;3.45;1.92;;;33.60;45.10;;;;;;5053267;28;20315;-61
2023/07/08 12:15:29;;;;;;;2.72;1.88;;;33.60;45.00;;;;;;5052898;28;20564;-61
2023/07/08 12:17:58;;;;;;;4.10;2.25;;;33.50;45.00;;;;;;5052501;28;20220;-61
2023/07/08 12:20:29;;;;;;;3.70;1.77;;;33.60;44.60;;;;;;5052687;28;20209;-61
2023/07/08 12:22:55;;;;;;;1.95;1.75;;;33.70;44.60;;;;;;5052908;28;20237;-61
2023/07/08 12:25:26;;;;;;;45.63;5.78;;;33.80;44.20;;;;;;5052824;28;20590;-62
2023/07/08 12:27:54;;;;;;;3.22;1.70;;;33.90;43.70;;;;;;5052927;28;20275;-61
2023/07/08 12:30:21;;;;;;;2.78;1.42;;;34.00;43.10;;;;;;5052010;28;20364;-57
2023/07/08 12:32:48;;;;;;;2.45;1.77;;;34.00;43.40;;;;;;5052531;28;20700;-57
2023/07/08 12:35:22;;;;;;;5.50;2.30;;;34.00;43.20;;;;;;5052281;28;20677;-57
2023/07/08 12:37:50;;;;;;;3.75;2.00;;;34.00;43.20;;;;;;5052437;28;20216;-61
2023/07/08 12:40:16;;;;;;;2.53;1.48;;;34.00;43.00;;;;;;5052674;28;20213;-61
2023/07/08 12:42:44;;;;;;;3.25;1.80;;;34.10;42.70;;;;;;5052267;28;20234;-60
2023/07/08 12:45:15;;;;;;;3.63;1.85;;;34.20;42.80;;;;;;5051123;28;20209;-61
2023/07/08 12:47:43;;;;;;;2.28;1.90;;;34.10;43.00;;;;;;5045820;28;20206;-55
2023/07/08 12:50:11;;;;;;;2.38;1.83;;;34.10;43.10;;;;;;5052261;28;20218;-57
2023/07/08 12:52:38;;;;;;;4.78;2.20;;;34.20;43.00;;;;;;5050031;28;20230;-57
2023/07/08 12:55:05;;;;;;;2.97;1.92;;;34.20;43.10;;;;;;5052026;28;20565;-63